sensor_id;sensor_type;location;lat;lon;timestamp;temperature;humidity
10472;DHT22;5283;48.876;8.962;2022-09-09T00:00:49;14.50;99.90
10472;DHT22;5283;48.876;8.962;2022-09-09T00:03:24;14.60;99.90
10472;DHT22;5283;48.876;8.962;2022-09-09T00:06:42;14.60;99.90
10472;DHT22;5283;48.876;8.962;2022-09-09T00:08:47;14.70;99.90
10472;DHT22;5283;48.876;8.962;2022-09-09T00:11:20;14.70;99.90
10472;DHT22;5283;48.876;8.962;2022-09-09T00:13:52;14.70;99.90
10472;DHT22;5283;48.876;8.962;2022-09-09T00:16:30;14.60;99.90
10472;DHT22;5283;48.876;8.962;2022-09-09T00:19:15;14.60;99.90
10472;DHT22;5283;48.876;8.962;2022-09-09T00:21:59;14.70;99.90
10472;DHT22;5283;48.876;8.962;2022-09-09T00:24:54;14.70;99.90
10472;DHT22;5283;48.876;8.962;2022-09-09T00:30:26;14.70;99.90
10472;DHT22;5283;48.876;8.962;2022-09-09T00:32:55;14.70;99.90
10472;DHT22;5283;48.876;8.962;2022-09-09T00:35:37;14.80;99.90
10472;DHT22;5283;48.876;8.962;2022-09-09T00:38:35;14.80;99.90
10472;DHT22;5283;48.876;8.962;2022-09-09T00:41:14;14.80;99.90
10472;DHT22;5283;48.876;8.962;2022-09-09T00:43:41;14.70;99.90
10472;DHT22;5283;48.876;8.962;2022-09-09T00:54:18;14.50;99.90
10472;DHT22;5283;48.876;8.962;2022-09-09T01:08:20;14.40;99.90
10472;DHT22;5283;48.876;8.962;2022-09-09T01:10:52;14.40;99.90
10472;DHT22;5283;48.876;8.962;2022-09-09T01:13:31;14.40;99.90
10472;DHT22;5283;48.876;8.962;2022-09-09T01:16:02;14.40;99.90
10472;DHT22;5283;48.876;8.962;2022-09-09T01:18:41;14.30;99.90
10472;DHT22;5283;48.876;8.962;2022-09-09T01:21:50;14.30;99.90
10472;DHT22;5283;48.876;8.962;2022-09-09T01:24:27;14.30;99.90
10472;DHT22;5283;48.876;8.962;2022-09-09T01:27:01;14.30;99.90
10472;DHT22;5283;48.876;8.962;2022-09-09T01:29:28;14.20;99.90
10472;DHT22;5283;48.876;8.962;2022-09-09T01:35:03;14.20;99.90
10472;DHT22;5283;48.876;8.962;2022-09-09T01:37:30;14.20;99.90
10472;DHT22;5283;48.876;8.962;2022-09-09T01:39:57;14.20;99.90
10472;DHT22;5283;48.876;8.962;2022-09-09T01:42:24;14.20;99.90
10472;DHT22;5283;48.876;8.962;2022-09-09T01:44:51;14.20;99.90
10472;DHT22;5283;48.876;8.962;2022-09-09T01:47:18;14.30;99.90
10472;DHT22;5283;48.876;8.962;2022-09-09T01:49:45;14.30;99.90
10472;DHT22;5283;48.876;8.962;2022-09-09T01:52:11;14.30;99.90
10472;DHT22;5283;48.876;8.962;2022-09-09T01:54:38;14.30;99.90
10472;DHT22;5283;48.876;8.962;2022-09-09T01:57:25;14.40;99.90
10472;DHT22;5283;48.876;8.962;2022-09-09T02:07:49;15.00;99.90
10472;DHT22;5283;48.876;8.962;2022-09-09T02:10:37;15.10;99.90
10472;DHT22;5283;48.876;8.962;2022-09-09T02:13:12;15.10;99.90
10472;DHT22;5283;48.876;8.962;2022-09-09T02:16:03;15.00;99.90
10472;DHT22;5283;48.876;8.962;2022-09-09T02:18:41;14.70;99.90
10472;DHT22;5283;48.876;8.962;2022-09-09T02:21:09;14.40;99.90
10472;DHT22;5283;48.876;8.962;2022-09-09T02:23:40;14.10;99.90
10472;DHT22;5283;48.876;8.962;2022-09-09T02:26:09;13.80;99.90
10472;DHT22;5283;48.876;8.962;2022-09-09T02:28:38;13.50;99.90
10472;DHT22;5283;48.876;8.962;2022-09-09T02:31:05;13.40;99.90
10472;DHT22;5283;48.876;8.962;2022-09-09T02:33:42;13.20;99.90
10472;DHT22;5283;48.876;8.962;2022-09-09T02:36:13;13.10;99.90
10472;DHT22;5283;48.876;8.962;2022-09-09T02:38:46;13.00;99.90
10472;DHT22;5283;48.876;8.962;2022-09-09T02:41:24;13.00;99.90
10472;DHT22;5283;48.876;8.962;2022-09-09T02:43:52;13.00;99.90
10472;DHT22;5283;48.876;8.962;2022-09-09T02:46:24;13.00;99.90
10472;DHT22;5283;48.876;8.962;2022-09-09T02:49:02;13.00;99.90
10472;DHT22;5283;48.876;8.962;2022-09-09T02:54:32;12.90;99.90
10472;DHT22;5283;48.876;8.962;2022-09-09T02:57:11;12.90;99.90
10472;DHT22;5283;48.876;8.962;2022-09-09T02:59:39;12.80;99.90
10472;DHT22;5283;48.876;8.962;2022-09-09T03:02:06;12.80;99.90
10472;DHT22;5283;48.876;8.962;2022-09-09T03:04:33;12.70;99.90
10472;DHT22;5283;48.876;8.962;2022-09-09T03:06:59;12.60;99.90
10472;DHT22;5283;48.876;8.962;2022-09-09T03:09:26;12.50;99.90
10472;DHT22;5283;48.876;8.962;2022-09-09T03:11:53;12.30;99.90
10472;DHT22;5283;48.876;8.962;2022-09-09T03:14:22;12.30;99.90
10472;DHT22;5283;48.876;8.962;2022-09-09T03:16:52;12.30;99.90
10472;DHT22;5283;48.876;8.962;2022-09-09T03:19:20;12.20;99.90
10472;DHT22;5283;48.876;8.962;2022-09-09T03:21:47;12.10;99.90
10472;DHT22;5283;48.876;8.962;2022-09-09T03:24:14;12.10;99.90
10472;DHT22;5283;48.876;8.962;2022-09-09T03:26:41;12.00;99.90
10472;DHT22;5283;48.876;8.962;2022-09-09T03:29:11;12.00;99.90
10472;DHT22;5283;48.876;8.962;2022-09-09T03:31:39;12.00;99.90
10472;DHT22;5283;48.876;8.962;2022-09-09T03:34:06;12.10;99.90
10472;DHT22;5283;48.876;8.962;2022-09-09T03:36:33;12.10;99.90
10472;DHT22;5283;48.876;8.962;2022-09-09T03:39:00;12.10;99.90
10472;DHT22;5283;48.876;8.962;2022-09-09T03:41:27;12.10;99.90
10472;DHT22;5283;48.876;8.962;2022-09-09T03:43:54;12.00;99.90
10472;DHT22;5283;48.876;8.962;2022-09-09T03:46:23;12.00;99.90
10472;DHT22;5283;48.876;8.962;2022-09-09T03:48:50;11.90;99.90
10472;DHT22;5283;48.876;8.962;2022-09-09T03:51:19;11.90;99.90
10472;DHT22;5283;48.876;8.962;2022-09-09T03:53:46;11.90;99.90
10472;DHT22;5283;48.876;8.962;2022-09-09T03:56:13;11.90;99.90
10472;DHT22;5283;48.876;8.962;2022-09-09T03:58:40;11.90;99.90
10472;DHT22;5283;48.876;8.962;2022-09-09T04:01:14;11.90;99.90
10472;DHT22;5283;48.876;8.962;2022-09-09T04:03:41;11.80;99.90
10472;DHT22;5283;48.876;8.962;2022-09-09T04:06:09;11.70;99.90
10472;DHT22;5283;48.876;8.962;2022-09-09T04:08:36;11.70;99.90
10472;DHT22;5283;48.876;8.962;2022-09-09T04:11:05;11.60;99.90
10472;DHT22;5283;48.876;8.962;2022-09-09T04:13:34;11.60;99.90
10472;DHT22;5283;48.876;8.962;2022-09-09T04:16:02;11.60;99.90
10472;DHT22;5283;48.876;8.962;2022-09-09T04:18:31;11.80;99.90
10472;DHT22;5283;48.876;8.962;2022-09-09T04:20:58;11.90;99.90
10472;DHT22;5283;48.876;8.962;2022-09-09T04:23:27;12.10;99.90
10472;DHT22;5283;48.876;8.962;2022-09-09T04:25:56;12.30;99.90
10472;DHT22;5283;48.876;8.962;2022-09-09T04:28:25;12.50;99.90
10472;DHT22;5283;48.876;8.962;2022-09-09T04:30:53;12.60;99.90
10472;DHT22;5283;48.876;8.962;2022-09-09T04:33:19;12.80;99.90
10472;DHT22;5283;48.876;8.962;2022-09-09T04:35:48;12.90;99.90
10472;DHT22;5283;48.876;8.962;2022-09-09T04:38:17;13.00;99.90
10472;DHT22;5283;48.876;8.962;2022-09-09T04:40:47;13.00;99.90
10472;DHT22;5283;48.876;8.962;2022-09-09T04:43:14;13.10;99.90
10472;DHT22;5283;48.876;8.962;2022-09-09T04:45:47;13.10;99.90
10472;DHT22;5283;48.876;8.962;2022-09-09T04:48:14;13.10;99.90
10472;DHT22;5283;48.876;8.962;2022-09-09T04:50:41;13.00;99.90
10472;DHT22;5283;48.876;8.962;2022-09-09T04:53:08;13.00;99.90
10472;DHT22;5283;48.876;8.962;2022-09-09T04:55:35;13.00;99.90
10472;DHT22;5283;48.876;8.962;2022-09-09T04:58:06;13.00;99.90
10472;DHT22;5283;48.876;8.962;2022-09-09T05:00:35;12.90;99.90
10472;DHT22;5283;48.876;8.962;2022-09-09T05:03:03;13.00;99.90
10472;DHT22;5283;48.876;8.962;2022-09-09T05:05:32;13.00;99.90
10472;DHT22;5283;48.876;8.962;2022-09-09T05:08:07;13.10;99.90
10472;DHT22;5283;48.876;8.962;2022-09-09T05:10:38;13.30;99.90
10472;DHT22;5283;48.876;8.962;2022-09-09T05:13:05;13.40;99.90
10472;DHT22;5283;48.876;8.962;2022-09-09T05:15:33;13.50;99.90
10472;DHT22;5283;48.876;8.962;2022-09-09T05:18:00;13.60;99.90
10472;DHT22;5283;48.876;8.962;2022-09-09T05:20:27;13.60;99.90
10472;DHT22;5283;48.876;8.962;2022-09-09T05:22:55;13.70;99.90
10472;DHT22;5283;48.876;8.962;2022-09-09T05:25:23;13.70;99.90
10472;DHT22;5283;48.876;8.962;2022-09-09T05:27:52;13.80;99.90
10472;DHT22;5283;48.876;8.962;2022-09-09T05:30:21;13.80;99.90
10472;DHT22;5283;48.876;8.962;2022-09-09T05:32:48;13.70;99.90
10472;DHT22;5283;48.876;8.962;2022-09-09T05:35:15;13.70;99.90
10472;DHT22;5283;48.876;8.962;2022-09-09T05:37:43;13.80;99.90
10472;DHT22;5283;48.876;8.962;2022-09-09T05:40:10;13.80;99.90
10472;DHT22;5283;48.876;8.962;2022-09-09T05:42:37;14.00;99.90
10472;DHT22;5283;48.876;8.962;2022-09-09T05:45:06;14.00;99.90
10472;DHT22;5283;48.876;8.962;2022-09-09T05:47:34;14.10;99.90
10472;DHT22;5283;48.876;8.962;2022-09-09T05:50:01;14.10;99.90
10472;DHT22;5283;48.876;8.962;2022-09-09T05:52:28;14.20;99.90
10472;DHT22;5283;48.876;8.962;2022-09-09T05:54:55;14.40;99.90
10472;DHT22;5283;48.876;8.962;2022-09-09T05:57:23;14.50;99.90
10472;DHT22;5283;48.876;8.962;2022-09-09T05:59:50;14.70;99.90
10472;DHT22;5283;48.876;8.962;2022-09-09T06:02:16;14.80;99.90
10472;DHT22;5283;48.876;8.962;2022-09-09T06:04:43;14.90;99.90
10472;DHT22;5283;48.876;8.962;2022-09-09T06:07:10;15.00;99.90
10472;DHT22;5283;48.876;8.962;2022-09-09T06:09:36;15.10;99.90
10472;DHT22;5283;48.876;8.962;2022-09-09T06:12:03;15.10;99.90
10472;DHT22;5283;48.876;8.962;2022-09-09T06:14:30;15.20;99.90
10472;DHT22;5283;48.876;8.962;2022-09-09T06:16:56;15.20;99.90
10472;DHT22;5283;48.876;8.962;2022-09-09T06:19:23;15.30;99.90
10472;DHT22;5283;48.876;8.962;2022-09-09T06:21:52;15.40;99.90
10472;DHT22;5283;48.876;8.962;2022-09-09T06:24:19;15.40;99.90
10472;DHT22;5283;48.876;8.962;2022-09-09T06:26:46;15.40;99.90
10472;DHT22;5283;48.876;8.962;2022-09-09T06:29:13;15.50;99.90
10472;DHT22;5283;48.876;8.962;2022-09-09T06:31:39;15.50;99.90
10472;DHT22;5283;48.876;8.962;2022-09-09T06:34:08;15.40;99.90
10472;DHT22;5283;48.876;8.962;2022-09-09T06:36:37;15.60;99.90
10472;DHT22;5283;48.876;8.962;2022-09-09T06:39:05;15.80;99.90
10472;DHT22;5283;48.876;8.962;2022-09-09T06:41:34;16.10;99.90
10472;DHT22;5283;48.876;8.962;2022-09-09T06:44:01;16.20;99.90
10472;DHT22;5283;48.876;8.962;2022-09-09T06:46:29;16.50;99.90
10472;DHT22;5283;48.876;8.962;2022-09-09T06:48:59;16.90;99.90
10472;DHT22;5283;48.876;8.962;2022-09-09T06:51:31;17.20;99.90
10472;DHT22;5283;48.876;8.962;2022-09-09T06:54:01;17.30;99.90
10472;DHT22;5283;48.876;8.962;2022-09-09T06:58:58;17.80;99.90
10472;DHT22;5283;48.876;8.962;2022-09-09T07:01:29;18.10;99.90
10472;DHT22;5283;48.876;8.962;2022-09-09T07:03:58;18.40;99.90
10472;DHT22;5283;48.876;8.962;2022-09-09T07:06:30;18.90;99.90
10472;DHT22;5283;48.876;8.962;2022-09-09T07:08:59;19.30;99.90
10472;DHT22;5283;48.876;8.962;2022-09-09T07:11:28;19.50;99.90
10472;DHT22;5283;48.876;8.962;2022-09-09T07:13:57;19.50;99.90
10472;DHT22;5283;48.876;8.962;2022-09-09T07:16:25;19.30;99.90
10472;DHT22;5283;48.876;8.962;2022-09-09T07:18:52;19.10;99.90
10472;DHT22;5283;48.876;8.962;2022-09-09T07:21:19;19.10;99.90
10472;DHT22;5283;48.876;8.962;2022-09-09T07:23:47;19.10;99.90
10472;DHT22;5283;48.876;8.962;2022-09-09T07:26:17;19.20;99.90
10472;DHT22;5283;48.876;8.962;2022-09-09T07:28:45;19.30;99.90
10472;DHT22;5283;48.876;8.962;2022-09-09T07:31:24;19.40;99.90
10472;DHT22;5283;48.876;8.962;2022-09-09T07:33:51;19.60;99.90
10472;DHT22;5283;48.876;8.962;2022-09-09T07:36:23;19.60;99.90
10472;DHT22;5283;48.876;8.962;2022-09-09T07:38:52;19.70;99.90
10472;DHT22;5283;48.876;8.962;2022-09-09T07:41:34;19.80;99.90
10472;DHT22;5283;48.876;8.962;2022-09-09T07:44:07;20.10;99.90
10472;DHT22;5283;48.876;8.962;2022-09-09T07:46:35;20.30;99.90
10472;DHT22;5283;48.876;8.962;2022-09-09T07:49:02;20.20;99.90
10472;DHT22;5283;48.876;8.962;2022-09-09T07:51:31;20.40;99.90
10472;DHT22;5283;48.876;8.962;2022-09-09T07:54:01;20.80;99.90
10472;DHT22;5283;48.876;8.962;2022-09-09T07:56:29;21.10;99.90
10472;DHT22;5283;48.876;8.962;2022-09-09T07:58:57;21.40;99.90
10472;DHT22;5283;48.876;8.962;2022-09-09T08:01:30;21.30;99.90
10472;DHT22;5283;48.876;8.962;2022-09-09T08:04:02;21.20;99.90
10472;DHT22;5283;48.876;8.962;2022-09-09T08:06:40;21.00;99.90
10472;DHT22;5283;48.876;8.962;2022-09-09T08:09:08;20.80;99.90
10472;DHT22;5283;48.876;8.962;2022-09-09T08:11:35;20.30;99.90
10472;DHT22;5283;48.876;8.962;2022-09-09T08:14:05;20.20;99.90
10472;DHT22;5283;48.876;8.962;2022-09-09T08:16:36;19.90;99.90
10472;DHT22;5283;48.876;8.962;2022-09-09T08:19:04;19.80;99.90
10472;DHT22;5283;48.876;8.962;2022-09-09T08:21:32;19.90;99.90
10472;DHT22;5283;48.876;8.962;2022-09-09T08:24:00;20.10;99.90
10472;DHT22;5283;48.876;8.962;2022-09-09T08:26:30;20.00;99.90
10472;DHT22;5283;48.876;8.962;2022-09-09T08:28:58;19.80;99.90
10472;DHT22;5283;48.876;8.962;2022-09-09T08:31:31;19.80;99.90
10472;DHT22;5283;48.876;8.962;2022-09-09T08:34:00;19.80;99.90
10472;DHT22;5283;48.876;8.962;2022-09-09T08:36:29;20.10;99.90
10472;DHT22;5283;48.876;8.962;2022-09-09T08:38:57;20.30;99.90
10472;DHT22;5283;48.876;8.962;2022-09-09T08:52:37;20.60;99.90
10472;DHT22;5283;48.876;8.962;2022-09-09T08:55:25;20.70;99.90
10472;DHT22;5283;48.876;8.962;2022-09-09T08:57:55;20.50;99.90
10472;DHT22;5283;48.876;8.962;2022-09-09T09:00:27;20.50;99.90
10472;DHT22;5283;48.876;8.962;2022-09-09T09:10:54;20.30;99.90
10472;DHT22;5283;48.876;8.962;2022-09-09T09:18:44;21.10;99.90
10472;DHT22;5283;48.876;8.962;2022-09-09T09:23:55;21.60;99.90
10472;DHT22;5283;48.876;8.962;2022-09-09T09:26:38;21.80;99.90
10472;DHT22;5283;48.876;8.962;2022-09-09T09:29:11;21.80;99.90
10472;DHT22;5283;48.876;8.962;2022-09-09T09:31:38;21.80;99.90
10472;DHT22;5283;48.876;8.962;2022-09-09T09:34:07;21.60;99.90
10472;DHT22;5283;48.876;8.962;2022-09-09T09:39:07;21.40;99.90
10472;DHT22;5283;48.876;8.962;2022-09-09T09:41:56;21.30;99.90
10472;DHT22;5283;48.876;8.962;2022-09-09T09:44:31;21.30;99.90
10472;DHT22;5283;48.876;8.962;2022-09-09T09:47:10;21.50;99.90
10472;DHT22;5283;48.876;8.962;2022-09-09T09:49:39;21.80;99.90
10472;DHT22;5283;48.876;8.962;2022-09-09T09:52:06;22.10;99.90
10472;DHT22;5283;48.876;8.962;2022-09-09T09:54:38;22.40;99.90
10472;DHT22;5283;48.876;8.962;2022-09-09T09:57:13;22.60;99.90
10472;DHT22;5283;48.876;8.962;2022-09-09T09:59:41;22.10;99.90
10472;DHT22;5283;48.876;8.962;2022-09-09T10:02:20;21.10;99.90
10472;DHT22;5283;48.876;8.962;2022-09-09T10:05:18;20.50;99.90
10472;DHT22;5283;48.876;8.962;2022-09-09T10:07:47;20.20;99.90
10472;DHT22;5283;48.876;8.962;2022-09-09T10:10:26;19.70;99.90
10472;DHT22;5283;48.876;8.962;2022-09-09T10:13:07;19.80;99.90
10472;DHT22;5283;48.876;8.962;2022-09-09T10:15:56;20.10;99.90
10472;DHT22;5283;48.876;8.962;2022-09-09T10:18:41;20.30;99.90
10472;DHT22;5283;48.876;8.962;2022-09-09T10:32:36;20.00;99.90
10472;DHT22;5283;48.876;8.962;2022-09-09T10:35:14;19.70;99.90
10472;DHT22;5283;48.876;8.962;2022-09-09T10:46:36;20.30;99.90
10472;DHT22;5283;48.876;8.962;2022-09-09T10:52:04;20.20;99.90
10472;DHT22;5283;48.876;8.962;2022-09-09T10:57:28;20.20;99.90
10472;DHT22;5283;48.876;8.962;2022-09-09T10:59:59;19.60;99.90
10472;DHT22;5283;48.876;8.962;2022-09-09T11:02:32;19.30;99.90
10472;DHT22;5283;48.876;8.962;2022-09-09T11:05:19;18.90;99.90
10472;DHT22;5283;48.876;8.962;2022-09-09T11:07:59;18.80;99.90
10472;DHT22;5283;48.876;8.962;2022-09-09T11:10:51;18.30;99.90
10472;DHT22;5283;48.876;8.962;2022-09-09T11:21:59;17.60;99.90
10472;DHT22;5283;48.876;8.962;2022-09-09T11:24:34;17.50;99.90
10472;DHT22;5283;48.876;8.962;2022-09-09T11:27:09;17.50;99.90
10472;DHT22;5283;48.876;8.962;2022-09-09T11:32:44;17.60;99.90
10472;DHT22;5283;48.876;8.962;2022-09-09T11:35:26;17.80;99.90
10472;DHT22;5283;48.876;8.962;2022-09-09T11:40:46;17.70;99.90
10472;DHT22;5283;48.876;8.962;2022-09-09T11:43:17;17.70;99.90
10472;DHT22;5283;48.876;8.962;2022-09-09T11:45:51;18.00;99.90
10472;DHT22;5283;48.876;8.962;2022-09-09T11:53:29;19.40;99.90
10472;DHT22;5283;48.876;8.962;2022-09-09T11:56:06;20.00;99.90
10472;DHT22;5283;48.876;8.962;2022-09-09T11:58:37;20.50;99.90
10472;DHT22;5283;48.876;8.962;2022-09-09T12:01:28;20.80;99.90
10472;DHT22;5283;48.876;8.962;2022-09-09T12:06:54;21.20;99.90
10472;DHT22;5283;48.876;8.962;2022-09-09T12:09:24;21.50;99.90
10472;DHT22;5283;48.876;8.962;2022-09-09T12:11:52;20.70;99.90
10472;DHT22;5283;48.876;8.962;2022-09-09T12:14:21;20.70;99.90
10472;DHT22;5283;48.876;8.962;2022-09-09T12:16:49;20.80;99.90
10472;DHT22;5283;48.876;8.962;2022-09-09T12:21:51;20.90;99.90
10472;DHT22;5283;48.876;8.962;2022-09-09T12:24:28;21.10;99.90
10472;DHT22;5283;48.876;8.962;2022-09-09T12:27:18;21.10;99.90
10472;DHT22;5283;48.876;8.962;2022-09-09T12:32:32;20.60;99.90
10472;DHT22;5283;48.876;8.962;2022-09-09T12:35:03;20.30;99.90
10472;DHT22;5283;48.876;8.962;2022-09-09T12:37:38;20.70;99.90
10472;DHT22;5283;48.876;8.962;2022-09-09T12:40:20;20.80;99.90
10472;DHT22;5283;48.876;8.962;2022-09-09T12:42:46;20.90;99.90
10472;DHT22;5283;48.876;8.962;2022-09-09T12:45:21;20.60;99.90
10472;DHT22;5283;48.876;8.962;2022-09-09T12:48:01;21.00;99.90
10472;DHT22;5283;48.876;8.962;2022-09-09T12:50:32;21.60;99.90
10472;DHT22;5283;48.876;8.962;2022-09-09T12:53:02;21.50;99.90
10472;DHT22;5283;48.876;8.962;2022-09-09T12:55:36;21.90;99.90
10472;DHT22;5283;48.876;8.962;2022-09-09T12:58:05;21.80;99.90
10472;DHT22;5283;48.876;8.962;2022-09-09T13:00:33;21.50;99.90
10472;DHT22;5283;48.876;8.962;2022-09-09T13:03:03;21.60;99.90
10472;DHT22;5283;48.876;8.962;2022-09-09T13:05:40;21.50;99.90
10472;DHT22;5283;48.876;8.962;2022-09-09T13:08:10;21.00;99.90
10472;DHT22;5283;48.876;8.962;2022-09-09T13:10:57;21.20;99.90
10472;DHT22;5283;48.876;8.962;2022-09-09T13:13:37;21.60;99.90
10472;DHT22;5283;48.876;8.962;2022-09-09T13:16:06;21.80;99.90
10472;DHT22;5283;48.876;8.962;2022-09-09T13:18:36;21.30;99.90
10472;DHT22;5283;48.876;8.962;2022-09-09T13:21:05;21.00;99.90
10472;DHT22;5283;48.876;8.962;2022-09-09T13:23:34;21.20;99.90
10472;DHT22;5283;48.876;8.962;2022-09-09T13:26:20;21.30;99.90
10472;DHT22;5283;48.876;8.962;2022-09-09T13:28:50;21.50;99.90
10472;DHT22;5283;48.876;8.962;2022-09-09T13:31:29;22.00;99.90
10472;DHT22;5283;48.876;8.962;2022-09-09T13:33:56;22.20;99.90
10472;DHT22;5283;48.876;8.962;2022-09-09T13:36:31;22.20;99.90
10472;DHT22;5283;48.876;8.962;2022-09-09T13:38:59;22.10;99.90
10472;DHT22;5283;48.876;8.962;2022-09-09T13:41:35;21.90;99.90
10472;DHT22;5283;48.876;8.962;2022-09-09T13:44:03;21.90;99.90
10472;DHT22;5283;48.876;8.962;2022-09-09T13:46:36;22.00;99.90
10472;DHT22;5283;48.876;8.962;2022-09-09T13:51:41;22.30;99.90
10472;DHT22;5283;48.876;8.962;2022-09-09T13:54:09;22.20;99.90
10472;DHT22;5283;48.876;8.962;2022-09-09T13:56:38;21.60;99.90
10472;DHT22;5283;48.876;8.962;2022-09-09T13:59:08;21.10;99.90
10472;DHT22;5283;48.876;8.962;2022-09-09T14:01:36;21.00;99.90
10472;DHT22;5283;48.876;8.962;2022-09-09T14:04:04;21.60;99.90
10472;DHT22;5283;48.876;8.962;2022-09-09T14:06:34;22.50;99.90
10472;DHT22;5283;48.876;8.962;2022-09-09T14:09:07;23.00;99.90
10472;DHT22;5283;48.876;8.962;2022-09-09T14:11:34;23.60;99.90
10472;DHT22;5283;48.876;8.962;2022-09-09T14:14:00;24.10;99.90
10472;DHT22;5283;48.876;8.962;2022-09-09T14:16:27;24.40;99.90
10472;DHT22;5283;48.876;8.962;2022-09-09T14:18:54;24.10;99.90
10472;DHT22;5283;48.876;8.962;2022-09-09T14:21:26;23.30;99.90
10472;DHT22;5283;48.876;8.962;2022-09-09T14:23:54;22.80;99.90
10472;DHT22;5283;48.876;8.962;2022-09-09T14:26:21;22.90;99.90
10472;DHT22;5283;48.876;8.962;2022-09-09T14:28:48;23.30;99.90
10472;DHT22;5283;48.876;8.962;2022-09-09T14:31:23;23.10;99.90
10472;DHT22;5283;48.876;8.962;2022-09-09T14:33:50;23.00;99.90
10472;DHT22;5283;48.876;8.962;2022-09-09T14:36:17;22.30;99.90
10472;DHT22;5283;48.876;8.962;2022-09-09T14:38:44;22.20;99.90
10472;DHT22;5283;48.876;8.962;2022-09-09T14:41:12;22.80;99.90
10472;DHT22;5283;48.876;8.962;2022-09-09T14:43:40;23.10;99.90
10472;DHT22;5283;48.876;8.962;2022-09-09T14:46:08;22.70;99.90
10472;DHT22;5283;48.876;8.962;2022-09-09T14:48:35;22.30;99.90
10472;DHT22;5283;48.876;8.962;2022-09-09T14:51:13;21.80;99.90
10472;DHT22;5283;48.876;8.962;2022-09-09T14:53:40;21.60;99.90
10472;DHT22;5283;48.876;8.962;2022-09-09T14:56:09;21.50;99.90
10472;DHT22;5283;48.876;8.962;2022-09-09T14:58:37;21.50;99.90
10472;DHT22;5283;48.876;8.962;2022-09-09T15:01:06;21.50;99.90
10472;DHT22;5283;48.876;8.962;2022-09-09T15:03:33;21.50;99.90
10472;DHT22;5283;48.876;8.962;2022-09-09T15:06:12;21.70;99.90
10472;DHT22;5283;48.876;8.962;2022-09-09T15:08:43;21.70;99.90
10472;DHT22;5283;48.876;8.962;2022-09-09T15:11:12;21.40;99.90
10472;DHT22;5283;48.876;8.962;2022-09-09T15:13:40;21.30;99.90
10472;DHT22;5283;48.876;8.962;2022-09-09T15:18:35;21.30;99.90
10472;DHT22;5283;48.876;8.962;2022-09-09T15:21:03;21.30;99.90
10472;DHT22;5283;48.876;8.962;2022-09-09T15:23:32;21.20;99.90
10472;DHT22;5283;48.876;8.962;2022-09-09T15:25:59;21.30;99.90
10472;DHT22;5283;48.876;8.962;2022-09-09T15:28:26;21.40;99.90
10472;DHT22;5283;48.876;8.962;2022-09-09T15:30:53;21.30;99.90
10472;DHT22;5283;48.876;8.962;2022-09-09T15:33:21;21.30;99.90
10472;DHT22;5283;48.876;8.962;2022-09-09T15:35:48;21.20;99.90
10472;DHT22;5283;48.876;8.962;2022-09-09T15:38:16;20.90;99.90
10472;DHT22;5283;48.876;8.962;2022-09-09T15:40:43;20.70;99.90
10472;DHT22;5283;48.876;8.962;2022-09-09T15:43:10;20.50;99.90
10472;DHT22;5283;48.876;8.962;2022-09-09T15:45:37;20.40;99.90
10472;DHT22;5283;48.876;8.962;2022-09-09T15:48:04;20.30;99.90
10472;DHT22;5283;48.876;8.962;2022-09-09T15:50:30;20.20;99.90
10472;DHT22;5283;48.876;8.962;2022-09-09T15:52:59;20.10;99.90
10472;DHT22;5283;48.876;8.962;2022-09-09T15:55:26;20.10;99.90
10472;DHT22;5283;48.876;8.962;2022-09-09T15:57:52;20.10;99.90
10472;DHT22;5283;48.876;8.962;2022-09-09T16:00:20;20.10;99.90
10472;DHT22;5283;48.876;8.962;2022-09-09T16:02:47;20.10;99.90
10472;DHT22;5283;48.876;8.962;2022-09-09T16:05:14;20.00;99.90
10472;DHT22;5283;48.876;8.962;2022-09-09T16:07:41;19.50;99.90
10472;DHT22;5283;48.876;8.962;2022-09-09T16:10:09;17.80;99.90
10472;DHT22;5283;48.876;8.962;2022-09-09T16:12:36;15.60;99.90
10472;DHT22;5283;48.876;8.962;2022-09-09T16:15:03;14.70;99.90
10472;DHT22;5283;48.876;8.962;2022-09-09T16:17:30;14.40;99.90
10472;DHT22;5283;48.876;8.962;2022-09-09T16:20:03;14.20;99.90
10472;DHT22;5283;48.876;8.962;2022-09-09T16:22:33;14.10;99.90
10472;DHT22;5283;48.876;8.962;2022-09-09T16:24:59;14.00;99.90
10472;DHT22;5283;48.876;8.962;2022-09-09T16:27:26;14.10;99.90
10472;DHT22;5283;48.876;8.962;2022-09-09T16:29:53;14.20;99.90
10472;DHT22;5283;48.876;8.962;2022-09-09T16:32:20;14.20;99.90
10472;DHT22;5283;48.876;8.962;2022-09-09T16:34:46;14.30;99.90
10472;DHT22;5283;48.876;8.962;2022-09-09T16:37:14;14.20;99.90
10472;DHT22;5283;48.876;8.962;2022-09-09T16:39:41;14.30;99.90
10472;DHT22;5283;48.876;8.962;2022-09-09T16:42:08;14.30;99.90
10472;DHT22;5283;48.876;8.962;2022-09-09T16:44:35;14.30;99.90
10472;DHT22;5283;48.876;8.962;2022-09-09T16:47:02;14.20;99.90
10472;DHT22;5283;48.876;8.962;2022-09-09T16:49:29;14.20;99.90
10472;DHT22;5283;48.876;8.962;2022-09-09T16:51:58;14.30;99.90
10472;DHT22;5283;48.876;8.962;2022-09-09T16:54:25;14.30;99.90
10472;DHT22;5283;48.876;8.962;2022-09-09T16:56:53;14.50;99.90
10472;DHT22;5283;48.876;8.962;2022-09-09T16:59:21;14.70;99.90
10472;DHT22;5283;48.876;8.962;2022-09-09T17:01:50;14.80;99.90
10472;DHT22;5283;48.876;8.962;2022-09-09T17:04:19;14.70;99.90
10472;DHT22;5283;48.876;8.962;2022-09-09T17:06:48;14.70;99.90
10472;DHT22;5283;48.876;8.962;2022-09-09T17:09:19;14.60;99.90
10472;DHT22;5283;48.876;8.962;2022-09-09T17:11:46;14.50;99.90
10472;DHT22;5283;48.876;8.962;2022-09-09T17:14:16;14.30;99.90
10472;DHT22;5283;48.876;8.962;2022-09-09T17:16:44;14.20;99.90
10472;DHT22;5283;48.876;8.962;2022-09-09T17:19:11;14.10;99.90
10472;DHT22;5283;48.876;8.962;2022-09-09T17:21:39;14.00;99.90
10472;DHT22;5283;48.876;8.962;2022-09-09T17:24:15;14.00;99.90
10472;DHT22;5283;48.876;8.962;2022-09-09T17:26:42;13.90;99.90
10472;DHT22;5283;48.876;8.962;2022-09-09T17:29:09;13.80;99.90
10472;DHT22;5283;48.876;8.962;2022-09-09T17:31:37;13.80;99.90
10472;DHT22;5283;48.876;8.962;2022-09-09T17:34:04;13.70;99.90
10472;DHT22;5283;48.876;8.962;2022-09-09T17:36:33;13.70;99.90
10472;DHT22;5283;48.876;8.962;2022-09-09T17:39:00;13.50;99.90
10472;DHT22;5283;48.876;8.962;2022-09-09T17:41:33;13.50;99.90
10472;DHT22;5283;48.876;8.962;2022-09-09T17:44:00;13.30;99.90
10472;DHT22;5283;48.876;8.962;2022-09-09T17:46:29;13.20;99.90
10472;DHT22;5283;48.876;8.962;2022-09-09T17:48:59;13.20;99.90
10472;DHT22;5283;48.876;8.962;2022-09-09T17:51:27;13.30;99.90
10472;DHT22;5283;48.876;8.962;2022-09-09T17:54:01;13.30;99.90
10472;DHT22;5283;48.876;8.962;2022-09-09T17:56:31;13.30;99.90
10472;DHT22;5283;48.876;8.962;2022-09-09T17:59:00;13.40;99.90
10472;DHT22;5283;48.876;8.962;2022-09-09T18:01:29;13.40;99.90
10472;DHT22;5283;48.876;8.962;2022-09-09T18:03:58;13.50;99.90
10472;DHT22;5283;48.876;8.962;2022-09-09T18:06:29;13.60;99.90
10472;DHT22;5283;48.876;8.962;2022-09-09T18:08:59;13.70;99.90
10472;DHT22;5283;48.876;8.962;2022-09-09T18:11:33;13.70;99.90
10472;DHT22;5283;48.876;8.962;2022-09-09T18:14:02;13.70;99.90